sensor_id;sensor_type;location;lat;lon;timestamp;pressure;altitude;pressure_sealevel;temperature;humidity
57248;BME280;55809;46.618;10.764;2022-07-30T00:01:03;93050.38;;;17.01;86.18
57248;BME280;55809;46.618;10.764;2022-07-30T00:03:32;92999.81;;;16.71;86.63
57248;BME280;55809;46.618;10.764;2022-07-30T00:06:00;93038.56;;;17.04;86.92
57248;BME280;55809;46.618;10.764;2022-07-30T00:08:29;93040.00;;;17.09;86.76
57248;BME280;55809;46.618;10.764;2022-07-30T00:10:58;93038.16;;;17.06;86.92
57248;BME280;55809;46.618;10.764;2022-07-30T00:13:27;93043.25;;;17.04;86.78
57248;BME280;55809;46.618;10.764;2022-07-30T00:15:55;93044.03;;;17.04;86.14
57248;BME280;55809;46.618;10.764;2022-07-30T00:18:26;93024.72;;;16.99;86.20
57248;BME280;55809;46.618;10.764;2022-07-30T00:20:54;93041.28;;;17.04;85.87
57248;BME280;55809;46.618;10.764;2022-07-30T00:23:22;93040.88;;;17.06;86.09
57248;BME280;55809;46.618;10.764;2022-07-30T00:25:51;93033.44;;;17.06;86.25
57248;BME280;55809;46.618;10.764;2022-07-30T00:28:19;93047.84;;;17.07;87.23
57248;BME280;55809;46.618;10.764;2022-07-30T00:30:47;93035.53;;;17.02;87.12
57248;BME280;55809;46.618;10.764;2022-07-30T00:33:16;93033.22;;;17.01;86.82
57248;BME280;55809;46.618;10.764;2022-07-30T00:35:58;93041.97;;;16.96;86.81
57248;BME280;55809;46.618;10.764;2022-07-30T00:38:27;92976.81;;;16.59;86.85
57248;BME280;55809;46.618;10.764;2022-07-30T00:40:55;93038.25;;;16.90;87.05
57248;BME280;55809;46.618;10.764;2022-07-30T00:43:25;93033.44;;;16.94;86.24
57248;BME280;55809;46.618;10.764;2022-07-30T00:45:52;93028.75;;;16.94;85.61
57248;BME280;55809;46.618;10.764;2022-07-30T00:48:21;93035.00;;;16.95;85.99
57248;BME280;55809;46.618;10.764;2022-07-30T00:50:51;93030.31;;;16.95;86.74
57248;BME280;55809;46.618;10.764;2022-07-30T00:53:19;93034.09;;;16.98;87.33
57248;BME280;55809;46.618;10.764;2022-07-30T00:55:47;93027.22;;;16.93;86.93
57248;BME280;55809;46.618;10.764;2022-07-30T00:58:16;93030.41;;;16.92;87.16
57248;BME280;55809;46.618;10.764;2022-07-30T01:00:47;93049.03;;;16.93;87.04
57248;BME280;55809;46.618;10.764;2022-07-30T01:03:15;93045.13;;;16.94;86.80
57248;BME280;55809;46.618;10.764;2022-07-30T01:05:44;93042.06;;;16.92;87.46
57248;BME280;55809;46.618;10.764;2022-07-30T01:08:14;93032.69;;;16.93;87.07
57248;BME280;55809;46.618;10.764;2022-07-30T01:10:43;93039.78;;;16.91;87.11
57248;BME280;55809;46.618;10.764;2022-07-30T01:13:11;93034.75;;;16.89;86.94
57248;BME280;55809;46.618;10.764;2022-07-30T01:15:40;93042.94;;;16.89;87.27
57248;BME280;55809;46.618;10.764;2022-07-30T01:18:11;93049.91;;;16.90;87.34
57248;BME280;55809;46.618;10.764;2022-07-30T01:20:47;93042.84;;;16.93;87.71
57248;BME280;55809;46.618;10.764;2022-07-30T01:23:24;93044.81;;;16.92;87.26
57248;BME280;55809;46.618;10.764;2022-07-30T01:25:59;93026.22;;;16.74;87.60
57248;BME280;55809;46.618;10.764;2022-07-30T01:28:31;93045.34;;;16.87;87.59
57248;BME280;55809;46.618;10.764;2022-07-30T01:31:02;93027.22;;;16.80;87.53
57248;BME280;55809;46.618;10.764;2022-07-30T01:33:31;93032.91;;;16.86;88.98
57248;BME280;55809;46.618;10.764;2022-07-30T01:36:01;93043.06;;;16.85;88.58
57248;BME280;55809;46.618;10.764;2022-07-30T01:38:31;93041.84;;;16.86;87.73
57248;BME280;55809;46.618;10.764;2022-07-30T01:41:02;93021.06;;;16.63;87.70
57248;BME280;55809;46.618;10.764;2022-07-30T01:43:34;93033.13;;;16.79;86.94
57248;BME280;55809;46.618;10.764;2022-07-30T01:46:03;93013.34;;;16.62;87.25
57248;BME280;55809;46.618;10.764;2022-07-30T01:48:34;93025.50;;;16.86;87.23
57248;BME280;55809;46.618;10.764;2022-07-30T01:51:05;93028.31;;;16.83;84.47
57248;BME280;55809;46.618;10.764;2022-07-30T01:53:36;93019.63;;;16.88;83.69
57248;BME280;55809;46.618;10.764;2022-07-30T01:56:07;93025.81;;;16.88;84.44
57248;BME280;55809;46.618;10.764;2022-07-30T01:58:37;93026.59;;;16.89;84.14
57248;BME280;55809;46.618;10.764;2022-07-30T02:01:07;93015.22;;;16.91;82.34
57248;BME280;55809;46.618;10.764;2022-07-30T02:03:35;93007.50;;;16.76;83.09
57248;BME280;55809;46.618;10.764;2022-07-30T02:06:09;93016.50;;;16.73;82.25
57248;BME280;55809;46.618;10.764;2022-07-30T02:08:43;93019.78;;;16.55;82.41
57248;BME280;55809;46.618;10.764;2022-07-30T02:11:16;93012.66;;;16.45;81.87
57248;BME280;55809;46.618;10.764;2022-07-30T02:14:07;92999.69;;;16.36;83.02
57248;BME280;55809;46.618;10.764;2022-07-30T02:16:39;93011.69;;;16.39;82.10
57248;BME280;55809;46.618;10.764;2022-07-30T02:19:11;93016.75;;;16.24;83.01
57248;BME280;55809;46.618;10.764;2022-07-30T02:21:44;93015.56;;;16.25;82.90
57248;BME280;55809;46.618;10.764;2022-07-30T02:24:19;93009.34;;;16.25;81.13
57248;BME280;55809;46.618;10.764;2022-07-30T02:26:54;93014.38;;;16.26;80.16
57248;BME280;55809;46.618;10.764;2022-07-30T02:29:24;93010.78;;;16.29;79.89
57248;BME280;55809;46.618;10.764;2022-07-30T02:31:54;93008.06;;;16.29;79.06
57248;BME280;55809;46.618;10.764;2022-07-30T02:34:24;93009.25;;;16.28;78.30
57248;BME280;55809;46.618;10.764;2022-07-30T02:36:53;93013.63;;;16.26;78.33
57248;BME280;55809;46.618;10.764;2022-07-30T02:39:21;93014.47;;;16.23;78.27
57248;BME280;55809;46.618;10.764;2022-07-30T02:41:53;93007.16;;;16.20;79.18
57248;BME280;55809;46.618;10.764;2022-07-30T02:44:25;92989.59;;;16.08;77.80
57248;BME280;55809;46.618;10.764;2022-07-30T02:46:57;93013.13;;;16.14;77.83
57248;BME280;55809;46.618;10.764;2022-07-30T02:49:27;93018.69;;;16.11;77.88
57248;BME280;55809;46.618;10.764;2022-07-30T02:51:57;93018.34;;;16.09;78.49
57248;BME280;55809;46.618;10.764;2022-07-30T02:54:31;93027.59;;;16.11;77.11
57248;BME280;55809;46.618;10.764;2022-07-30T02:57:00;93020.28;;;16.08;77.27
57248;BME280;55809;46.618;10.764;2022-07-30T02:59:30;93021.84;;;16.09;77.86
57248;BME280;55809;46.618;10.764;2022-07-30T03:01:59;93022.91;;;16.12;75.91
57248;BME280;55809;46.618;10.764;2022-07-30T03:04:30;93025.75;;;16.08;75.29
57248;BME280;55809;46.618;10.764;2022-07-30T03:07:00;93027.03;;;16.04;76.80
57248;BME280;55809;46.618;10.764;2022-07-30T03:09:31;93026.03;;;15.98;77.31
57248;BME280;55809;46.618;10.764;2022-07-30T03:12:02;93019.94;;;15.93;75.80
57248;BME280;55809;46.618;10.764;2022-07-30T03:14:31;93026.44;;;15.83;75.31
57248;BME280;55809;46.618;10.764;2022-07-30T03:17:02;93037.41;;;15.80;75.26
57248;BME280;55809;46.618;10.764;2022-07-30T03:19:31;93024.22;;;15.78;73.92
57248;BME280;55809;46.618;10.764;2022-07-30T03:22:02;93017.09;;;15.68;74.48
57248;BME280;55809;46.618;10.764;2022-07-30T03:24:34;93041.31;;;15.79;74.70
57248;BME280;55809;46.618;10.764;2022-07-30T03:27:06;93045.66;;;15.76;74.65
57248;BME280;55809;46.618;10.764;2022-07-30T03:29:36;93049.38;;;15.82;74.27
57248;BME280;55809;46.618;10.764;2022-07-30T03:32:05;93028.13;;;15.61;74.59
57248;BME280;55809;46.618;10.764;2022-07-30T03:34:34;93007.81;;;15.49;73.44
57248;BME280;55809;46.618;10.764;2022-07-30T03:37:03;93052.78;;;15.86;72.81
57248;BME280;55809;46.618;10.764;2022-07-30T03:39:33;93056.75;;;15.98;71.71
57248;BME280;55809;46.618;10.764;2022-07-30T03:42:02;93063.75;;;15.99;71.38
57248;BME280;55809;46.618;10.764;2022-07-30T03:44:33;93024.88;;;15.66;72.10
57248;BME280;55809;46.618;10.764;2022-07-30T03:47:04;93046.50;;;15.89;71.86
57248;BME280;55809;46.618;10.764;2022-07-30T03:49:32;93070.16;;;16.05;71.81
57248;BME280;55809;46.618;10.764;2022-07-30T03:52:00;93044.72;;;15.83;72.36
57248;BME280;55809;46.618;10.764;2022-07-30T03:54:31;93065.06;;;16.07;72.00
57248;BME280;55809;46.618;10.764;2022-07-30T03:57:00;93067.44;;;16.05;72.66
57248;BME280;55809;46.618;10.764;2022-07-30T03:59:28;93034.25;;;15.81;72.27
57248;BME280;55809;46.618;10.764;2022-07-30T04:02:01;93074.19;;;16.01;72.49
57248;BME280;55809;46.618;10.764;2022-07-30T04:04:30;93046.66;;;15.82;72.76
57248;BME280;55809;46.618;10.764;2022-07-30T04:06:58;93043.81;;;15.73;71.77
57248;BME280;55809;46.618;10.764;2022-07-30T04:09:26;93079.97;;;16.03;70.16
57248;BME280;55809;46.618;10.764;2022-07-30T04:11:55;93067.72;;;15.94;71.18
57248;BME280;55809;46.618;10.764;2022-07-30T04:14:23;93072.38;;;16.10;70.45
57248;BME280;55809;46.618;10.764;2022-07-30T04:16:55;93064.22;;;16.10;70.68
57248;BME280;55809;46.618;10.764;2022-07-30T04:19:29;93039.41;;;15.92;71.71
57248;BME280;55809;46.618;10.764;2022-07-30T04:22:00;93067.69;;;16.11;71.07
57248;BME280;55809;46.618;10.764;2022-07-30T04:24:30;93049.78;;;15.97;72.27
57248;BME280;55809;46.618;10.764;2022-07-30T04:26:59;93067.69;;;16.11;72.32
57248;BME280;55809;46.618;10.764;2022-07-30T04:29:28;93046.63;;;15.99;72.20
57248;BME280;55809;46.618;10.764;2022-07-30T04:31:57;93053.97;;;16.14;71.51
57248;BME280;55809;46.618;10.764;2022-07-30T04:34:29;93061.38;;;16.14;70.78
57248;BME280;55809;46.618;10.764;2022-07-30T04:36:58;93066.38;;;16.15;69.85
57248;BME280;55809;46.618;10.764;2022-07-30T04:39:26;93042.88;;;15.92;69.85
57248;BME280;55809;46.618;10.764;2022-07-30T04:41:54;93052.31;;;16.04;69.51
57248;BME280;55809;46.618;10.764;2022-07-30T04:44:22;93043.13;;;15.98;70.17
57248;BME280;55809;46.618;10.764;2022-07-30T04:46:51;93048.81;;;16.04;70.16
57248;BME280;55809;46.618;10.764;2022-07-30T04:49:21;93060.78;;;16.23;69.19
57248;BME280;55809;46.618;10.764;2022-07-30T04:51:53;93065.44;;;16.22;69.79
57248;BME280;55809;46.618;10.764;2022-07-30T04:54:23;93068.41;;;16.28;69.65
57248;BME280;55809;46.618;10.764;2022-07-30T04:56:54;93079.53;;;16.33;69.73
57248;BME280;55809;46.618;10.764;2022-07-30T04:59:23;93057.50;;;16.28;70.32
57248;BME280;55809;46.618;10.764;2022-07-30T05:01:53;93055.69;;;16.37;70.14
57248;BME280;55809;46.618;10.764;2022-07-30T05:04:25;93069.16;;;16.70;69.28
57248;BME280;55809;46.618;10.764;2022-07-30T05:06:59;93080.00;;;16.86;69.95
57248;BME280;55809;46.618;10.764;2022-07-30T05:09:29;93073.47;;;16.97;68.44
57248;BME280;55809;46.618;10.764;2022-07-30T05:11:57;93063.78;;;17.08;67.84
57248;BME280;55809;46.618;10.764;2022-07-30T05:14:33;93064.31;;;17.29;67.73
57248;BME280;55809;46.618;10.764;2022-07-30T05:17:03;93054.63;;;17.28;66.84
57248;BME280;55809;46.618;10.764;2022-07-30T05:19:30;93040.31;;;17.24;67.23
57248;BME280;55809;46.618;10.764;2022-07-30T05:22:00;93041.50;;;17.35;67.34
57248;BME280;55809;46.618;10.764;2022-07-30T05:24:28;93059.47;;;17.71;66.36
57248;BME280;55809;46.618;10.764;2022-07-30T05:26:57;93051.91;;;17.88;65.91
57248;BME280;55809;46.618;10.764;2022-07-30T05:29:25;93053.97;;;17.97;64.99
57248;BME280;55809;46.618;10.764;2022-07-30T05:31:54;93046.59;;;18.07;64.29
57248;BME280;55809;46.618;10.764;2022-07-30T05:34:22;93040.84;;;18.26;64.11
57248;BME280;55809;46.618;10.764;2022-07-30T05:36:50;93044.06;;;18.34;64.54
57248;BME280;55809;46.618;10.764;2022-07-30T05:39:21;93037.59;;;18.41;64.62
57248;BME280;55809;46.618;10.764;2022-07-30T05:41:50;93048.19;;;18.61;63.52
57248;BME280;55809;46.618;10.764;2022-07-30T05:44:18;93044.75;;;18.69;62.13
57248;BME280;55809;46.618;10.764;2022-07-30T05:46:47;93024.94;;;18.56;62.86
57248;BME280;55809;46.618;10.764;2022-07-30T05:49:15;93027.38;;;18.85;61.10
57248;BME280;55809;46.618;10.764;2022-07-30T05:51:43;93048.91;;;19.05;61.47
57248;BME280;55809;46.618;10.764;2022-07-30T05:54:10;93038.00;;;19.14;60.85
57248;BME280;55809;46.618;10.764;2022-07-30T05:56:39;93046.84;;;19.18;60.32
57248;BME280;55809;46.618;10.764;2022-07-30T05:59:06;93041.63;;;19.02;61.37
57248;BME280;55809;46.618;10.764;2022-07-30T06:01:33;93034.91;;;19.03;60.92
57248;BME280;55809;46.618;10.764;2022-07-30T06:04:03;93049.16;;;18.98;61.46
57248;BME280;55809;46.618;10.764;2022-07-30T06:06:30;93046.44;;;18.98;61.36
57248;BME280;55809;46.618;10.764;2022-07-30T06:08:57;93042.84;;;19.60;58.78
57248;BME280;55809;46.618;10.764;2022-07-30T06:11:24;93045.53;;;20.09;58.44
57248;BME280;55809;46.618;10.764;2022-07-30T06:13:53;93037.16;;;20.41;58.85
57248;BME280;55809;46.618;10.764;2022-07-30T06:16:20;93036.81;;;20.75;56.89
57248;BME280;55809;46.618;10.764;2022-07-30T06:18:47;93040.53;;;21.05;55.62
57248;BME280;55809;46.618;10.764;2022-07-30T06:21:14;93037.13;;;21.29;54.85
57248;BME280;55809;46.618;10.764;2022-07-30T06:23:41;93026.34;;;21.49;54.70
57248;BME280;55809;46.618;10.764;2022-07-30T06:26:08;93030.69;;;21.65;53.08
57248;BME280;55809;46.618;10.764;2022-07-30T06:28:35;93029.28;;;21.70;53.79
57248;BME280;55809;46.618;10.764;2022-07-30T06:31:03;93022.41;;;21.98;52.79
57248;BME280;55809;46.618;10.764;2022-07-30T06:33:30;93025.78;;;22.17;51.93
57248;BME280;55809;46.618;10.764;2022-07-30T06:35:58;93003.53;;;22.06;51.30
57248;BME280;55809;46.618;10.764;2022-07-30T06:38:25;93025.59;;;21.97;50.39
57248;BME280;55809;46.618;10.764;2022-07-30T06:40:52;93021.81;;;22.18;50.25
57248;BME280;55809;46.618;10.764;2022-07-30T06:43:19;93033.38;;;21.50;52.26
57248;BME280;55809;46.618;10.764;2022-07-30T06:45:46;93027.53;;;22.06;52.21
57248;BME280;55809;46.618;10.764;2022-07-30T06:48:15;93024.66;;;22.24;51.42
57248;BME280;55809;46.618;10.764;2022-07-30T06:50:42;93027.44;;;22.39;49.98
57248;BME280;55809;46.618;10.764;2022-07-30T06:53:09;93033.78;;;22.06;51.00
57248;BME280;55809;46.618;10.764;2022-07-30T06:55:39;93030.03;;;21.94;51.20
57248;BME280;55809;46.618;10.764;2022-07-30T06:58:06;93031.16;;;21.64;51.67
57248;BME280;55809;46.618;10.764;2022-07-30T07:00:33;93046.22;;;21.68;51.52
57248;BME280;55809;46.618;10.764;2022-07-30T07:03:00;93051.28;;;21.37;51.75
57248;BME280;55809;46.618;10.764;2022-07-30T07:05:29;93053.31;;;21.18;52.42
57248;BME280;55809;46.618;10.764;2022-07-30T07:07:57;93051.59;;;20.69;54.61
57248;BME280;55809;46.618;10.764;2022-07-30T07:10:24;93054.19;;;20.81;53.71
57248;BME280;55809;46.618;10.764;2022-07-30T07:12:51;93058.59;;;20.79;54.30
57248;BME280;55809;46.618;10.764;2022-07-30T07:15:18;93049.44;;;20.91;53.36
57248;BME280;55809;46.618;10.764;2022-07-30T07:17:45;93056.50;;;20.65;53.38
57248;BME280;55809;46.618;10.764;2022-07-30T07:20:13;93045.84;;;20.11;54.84
57248;BME280;55809;46.618;10.764;2022-07-30T07:22:41;93026.34;;;19.82;55.79
57248;BME280;55809;46.618;10.764;2022-07-30T07:25:09;93041.69;;;19.70;56.44
57248;BME280;55809;46.618;10.764;2022-07-30T07:27:36;93053.88;;;19.78;58.16
57248;BME280;55809;46.618;10.764;2022-07-30T07:30:03;93066.50;;;19.76;57.92
57248;BME280;55809;46.618;10.764;2022-07-30T07:32:31;93056.75;;;19.84;56.93
57248;BME280;55809;46.618;10.764;2022-07-30T07:35:01;93058.91;;;19.89;57.34
57248;BME280;55809;46.618;10.764;2022-07-30T07:37:42;93070.03;;;19.95;56.40
57248;BME280;55809;46.618;10.764;2022-07-30T07:40:11;93060.28;;;19.84;57.74
57248;BME280;55809;46.618;10.764;2022-07-30T07:42:40;93048.22;;;19.63;57.51
57248;BME280;55809;46.618;10.764;2022-07-30T07:45:09;93078.22;;;19.76;58.53
57248;BME280;55809;46.618;10.764;2022-07-30T07:47:53;93078.66;;;19.65;58.18
57248;BME280;55809;46.618;10.764;2022-07-30T07:50:21;93076.53;;;19.70;58.95
57248;BME280;55809;46.618;10.764;2022-07-30T07:52:52;93075.41;;;19.58;60.15
57248;BME280;55809;46.618;10.764;2022-07-30T07:55:19;93079.66;;;19.59;59.31
57248;BME280;55809;46.618;10.764;2022-07-30T07:57:47;93075.91;;;19.65;59.19
57248;BME280;55809;46.618;10.764;2022-07-30T08:00:17;93085.75;;;19.63;58.18
57248;BME280;55809;46.618;10.764;2022-07-30T08:02:45;93091.84;;;19.58;59.84
57248;BME280;55809;46.618;10.764;2022-07-30T08:05:12;93096.38;;;19.61;59.24
57248;BME280;55809;46.618;10.764;2022-07-30T08:07:41;93088.69;;;19.68;59.46
57248;BME280;55809;46.618;10.764;2022-07-30T08:10:09;93087.94;;;19.68;60.33
57248;BME280;55809;46.618;10.764;2022-07-30T08:12:38;93065.81;;;19.53;59.51
57248;BME280;55809;46.618;10.764;2022-07-30T08:15:06;93084.88;;;19.66;59.77
57248;BME280;55809;46.618;10.764;2022-07-30T08:17:38;93083.25;;;19.78;60.56
57248;BME280;55809;46.618;10.764;2022-07-30T08:20:06;93094.19;;;19.68;60.63
57248;BME280;55809;46.618;10.764;2022-07-30T08:22:33;93092.97;;;19.79;59.80
57248;BME280;55809;46.618;10.764;2022-07-30T08:25:00;93084.00;;;19.78;59.47
57248;BME280;55809;46.618;10.764;2022-07-30T08:27:29;93085.53;;;19.88;57.24
57248;BME280;55809;46.618;10.764;2022-07-30T08:29:56;93069.59;;;20.05;56.75
57248;BME280;55809;46.618;10.764;2022-07-30T08:32:23;93098.84;;;20.73;57.11
57248;BME280;55809;46.618;10.764;2022-07-30T08:34:50;93088.06;;;21.21;55.16
57248;BME280;55809;46.618;10.764;2022-07-30T08:37:17;93093.44;;;21.91;54.35
57248;BME280;55809;46.618;10.764;2022-07-30T08:39:44;93094.81;;;22.58;53.18
57248;BME280;55809;46.618;10.764;2022-07-30T08:42:12;93083.78;;;23.12;51.54
57248;BME280;55809;46.618;10.764;2022-07-30T08:44:43;93088.03;;;23.57;49.91
57248;BME280;55809;46.618;10.764;2022-07-30T08:47:13;93096.75;;;24.06;50.44
57248;BME280;55809;46.618;10.764;2022-07-30T08:49:42;93070.03;;;23.62;49.08
57248;BME280;55809;46.618;10.764;2022-07-30T08:52:10;93084.06;;;24.14;47.95
57248;BME280;55809;46.618;10.764;2022-07-30T08:54:37;93074.81;;;24.78;47.48
57248;BME280;55809;46.618;10.764;2022-07-30T08:57:05;93085.56;;;24.15;46.98
57248;BME280;55809;46.618;10.764;2022-07-30T08:59:32;93076.75;;;23.40;48.40
57248;BME280;55809;46.618;10.764;2022-07-30T09:02:01;93075.41;;;22.91;48.86
57248;BME280;55809;46.618;10.764;2022-07-30T09:04:28;93085.41;;;22.50;50.03
57248;BME280;55809;46.618;10.764;2022-07-30T09:06:55;93087.63;;;22.22;50.46
57248;BME280;55809;46.618;10.764;2022-07-30T09:09:22;93083.56;;;22.08;51.58
57248;BME280;55809;46.618;10.764;2022-07-30T09:11:48;93079.22;;;21.92;50.12
57248;BME280;55809;46.618;10.764;2022-07-30T09:14:15;93059.28;;;21.59;50.92
57248;BME280;55809;46.618;10.764;2022-07-30T09:16:43;93102.38;;;21.76;51.64
57248;BME280;55809;46.618;10.764;2022-07-30T09:19:13;93107.50;;;21.84;51.85
57248;BME280;55809;46.618;10.764;2022-07-30T09:21:41;93095.53;;;21.72;53.51
57248;BME280;55809;46.618;10.764;2022-07-30T09:24:10;93090.94;;;22.02;51.83
57248;BME280;55809;46.618;10.764;2022-07-30T09:26:55;93108.69;;;22.64;51.73
57248;BME280;55809;46.618;10.764;2022-07-30T09:29:24;93085.06;;;22.33;51.53
57248;BME280;55809;46.618;10.764;2022-07-30T09:31:53;93106.78;;;22.55;50.73
57248;BME280;55809;46.618;10.764;2022-07-30T09:34:26;93078.06;;;22.32;51.06
57248;BME280;55809;46.618;10.764;2022-07-30T09:36:54;93112.94;;;23.33;50.33
57248;BME280;55809;46.618;10.764;2022-07-30T09:39:29;93104.56;;;23.42;49.84
57248;BME280;55809;46.618;10.764;2022-07-30T09:41:58;93099.75;;;24.64;47.79
57248;BME280;55809;46.618;10.764;2022-07-30T09:44:26;93104.88;;;25.23;47.30
57248;BME280;55809;46.618;10.764;2022-07-30T09:46:55;93089.38;;;25.57;45.09
57248;BME280;55809;46.618;10.764;2022-07-30T09:49:26;93091.84;;;25.87;44.85
57248;BME280;55809;46.618;10.764;2022-07-30T09:51:55;93093.06;;;26.29;45.06
57248;BME280;55809;46.618;10.764;2022-07-30T09:54:23;93087.03;;;26.79;44.06
57248;BME280;55809;46.618;10.764;2022-07-30T09:57:03;93082.28;;;27.02;41.74
57248;BME280;55809;46.618;10.764;2022-07-30T09:59:31;93083.34;;;27.16;41.76
57248;BME280;55809;46.618;10.764;2022-07-30T10:01:59;93081.59;;;27.29;41.05
57248;BME280;55809;46.618;10.764;2022-07-30T10:04:29;93064.97;;;27.35;39.13
57248;BME280;55809;46.618;10.764;2022-07-30T10:06:56;93081.09;;;27.53;37.13
57248;BME280;55809;46.618;10.764;2022-07-30T10:09:25;93081.84;;;27.48;36.71
57248;BME280;55809;46.618;10.764;2022-07-30T10:11:53;93063.94;;;27.49;35.91
57248;BME280;55809;46.618;10.764;2022-07-30T10:14:21;93066.22;;;27.28;36.29
57248;BME280;55809;46.618;10.764;2022-07-30T10:16:49;93071.50;;;27.21;37.37
57248;BME280;55809;46.618;10.764;2022-07-30T10:19:16;93033.94;;;27.14;36.41
57248;BME280;55809;46.618;10.764;2022-07-30T10:21:47;93061.41;;;27.57;34.63
57248;BME280;55809;46.618;10.764;2022-07-30T10:24:16;93061.38;;;28.08;36.63
57248;BME280;55809;46.618;10.764;2022-07-30T10:26:53;93059.84;;;26.94;36.15
57248;BME280;55809;46.618;10.764;2022-07-30T10:29:22;93065.63;;;26.19;36.39
57248;BME280;55809;46.618;10.764;2022-07-30T10:31:51;93060.41;;;25.53;37.08
57248;BME280;55809;46.618;10.764;2022-07-30T10:34:19;93066.09;;;25.38;39.30
57248;BME280;55809;46.618;10.764;2022-07-30T10:36:51;93057.97;;;25.02;38.75
57248;BME280;55809;46.618;10.764;2022-07-30T10:39:23;93058.63;;;24.66;40.52
57248;BME280;55809;46.618;10.764;2022-07-30T10:42:02;93056.75;;;24.57;41.38
57248;BME280;55809;46.618;10.764;2022-07-30T10:44:46;93067.50;;;24.34;39.42
57248;BME280;55809;46.618;10.764;2022-07-30T10:47:24;93056.22;;;24.32;40.72
57248;BME280;55809;46.618;10.764;2022-07-30T10:50:07;93057.47;;;25.04;39.88
57248;BME280;55809;46.618;10.764;2022-07-30T10:52:54;93056.16;;;25.89;40.40
57248;BME280;55809;46.618;10.764;2022-07-30T10:55:23;93033.47;;;26.39;39.14
57248;BME280;55809;46.618;10.764;2022-07-30T10:58:02;93058.09;;;26.85;37.98
57248;BME280;55809;46.618;10.764;2022-07-30T11:00:30;93058.66;;;26.41;36.39
57248;BME280;55809;46.618;10.764;2022-07-30T11:03:16;93058.44;;;26.44;37.03
57248;BME280;55809;46.618;10.764;2022-07-30T11:05:44;93059.41;;;26.41;38.93
57248;BME280;55809;46.618;10.764;2022-07-30T11:08:36;93043.97;;;26.83;37.30
57248;BME280;55809;46.618;10.764;2022-07-30T11:11:05;93049.06;;;27.13;37.23
57248;BME280;55809;46.618;10.764;2022-07-30T11:13:55;93044.03;;;27.17;36.17
57248;BME280;55809;46.618;10.764;2022-07-30T11:16:23;93055.38;;;27.36;37.97
57248;BME280;55809;46.618;10.764;2022-07-30T11:19:11;93047.81;;;27.53;37.25
57248;BME280;55809;46.618;10.764;2022-07-30T11:21:41;93048.56;;;27.59;36.19
57248;BME280;55809;46.618;10.764;2022-07-30T11:24:43;93044.03;;;27.62;35.86
57248;BME280;55809;46.618;10.764;2022-07-30T11:27:33;93040.00;;;27.57;36.30
57248;BME280;55809;46.618;10.764;2022-07-30T11:30:00;93052.13;;;27.54;37.31
57248;BME280;55809;46.618;10.764;2022-07-30T11:32:29;93045.53;;;27.41;35.92
57248;BME280;55809;46.618;10.764;2022-07-30T11:35:16;93048.00;;;26.82;37.01
57248;BME280;55809;46.618;10.764;2022-07-30T11:37:58;93052.00;;;26.10;37.46
57248;BME280;55809;46.618;10.764;2022-07-30T11:40:28;93049.75;;;25.71;37.92
57248;BME280;55809;46.618;10.764;2022-07-30T11:46:05;93061.72;;;24.99;38.33
57248;BME280;55809;46.618;10.764;2022-07-30T11:48:33;93062.53;;;24.79;37.85
57248;BME280;55809;46.618;10.764;2022-07-30T11:51:02;93067.94;;;24.48;38.41
57248;BME280;55809;46.618;10.764;2022-07-30T11:53:30;93074.50;;;24.09;37.60
57248;BME280;55809;46.618;10.764;2022-07-30T11:56:00;93073.59;;;23.98;39.40
57248;BME280;55809;46.618;10.764;2022-07-30T11:58:29;93067.56;;;23.79;38.91
57248;BME280;55809;46.618;10.764;2022-07-30T12:00:59;93039.09;;;23.52;38.98
57248;BME280;55809;46.618;10.764;2022-07-30T12:03:27;93059.81;;;23.48;38.20
57248;BME280;55809;46.618;10.764;2022-07-30T12:06:00;93057.16;;;23.38;37.91
57248;BME280;55809;46.618;10.764;2022-07-30T12:08:28;93073.94;;;23.20;39.21
57248;BME280;55809;46.618;10.764;2022-07-30T12:10:58;93057.59;;;23.02;38.80
57248;BME280;55809;46.618;10.764;2022-07-30T12:13:26;93069.00;;;22.94;38.93
57248;BME280;55809;46.618;10.764;2022-07-30T12:15:53;93076.66;;;23.05;39.72
57248;BME280;55809;46.618;10.764;2022-07-30T12:18:24;93078.84;;;23.31;43.11
57248;BME280;55809;46.618;10.764;2022-07-30T12:20:56;93068.38;;;23.35;41.76
57248;BME280;55809;46.618;10.764;2022-07-30T12:23:26;93073.56;;;23.62;40.64
57248;BME280;55809;46.618;10.764;2022-07-30T12:25:53;93081.72;;;23.86;39.67
57248;BME280;55809;46.618;10.764;2022-07-30T12:28:23;93080.88;;;24.01;39.95
57248;BME280;55809;46.618;10.764;2022-07-30T12:30:52;93080.97;;;24.06;38.22
57248;BME280;55809;46.618;10.764;2022-07-30T12:33:19;93071.19;;;24.05;40.15
57248;BME280;55809;46.618;10.764;2022-07-30T12:35:48;93042.28;;;24.01;39.64
57248;BME280;55809;46.618;10.764;2022-07-30T12:38:17;93063.53;;;24.36;41.25
57248;BME280;55809;46.618;10.764;2022-07-30T12:40:56;93077.88;;;24.40;39.83
57248;BME280;55809;46.618;10.764;2022-07-30T12:43:44;93068.34;;;24.20;39.61
57248;BME280;55809;46.618;10.764;2022-07-30T12:46:12;93056.44;;;24.29;36.78
57248;BME280;55809;46.618;10.764;2022-07-30T12:48:54;93062.38;;;24.42;37.95
57248;BME280;55809;46.618;10.764;2022-07-30T12:51:22;93062.03;;;24.55;37.92
57248;BME280;55809;46.618;10.764;2022-07-30T12:53:50;93056.91;;;24.68;37.83
57248;BME280;55809;46.618;10.764;2022-07-30T12:56:22;93056.41;;;24.70;38.55
57248;BME280;55809;46.618;10.764;2022-07-30T12:58:51;93046.75;;;24.60;37.22
57248;BME280;55809;46.618;10.764;2022-07-30T13:01:38;93032.06;;;24.48;34.95
57248;BME280;55809;46.618;10.764;2022-07-30T13:04:05;93051.59;;;24.65;37.60
57248;BME280;55809;46.618;10.764;2022-07-30T13:06:32;93055.38;;;24.67;35.49
57248;BME280;55809;46.618;10.764;2022-07-30T13:09:00;93048.66;;;24.74;37.01